createdAt,value
2023-03-02T00:00:53.967Z,62.26
2023-03-02T00:01:53.976Z,61.21
2023-03-02T00:02:53.979Z,60.97
2023-03-02T00:03:54.048Z,61.42
2023-03-02T00:04:53.932Z,61.94
2023-03-02T00:05:53.921Z,60.58
2023-03-02T00:06:53.923Z,62.46
2023-03-02T00:07:53.901Z,62.43
2023-03-02T00:08:53.884Z,61.81
2023-03-02T00:09:53.882Z,62.46
2023-03-02T00:10:53.873Z,62.15
2023-03-02T00:11:53.873Z,63.20
2023-03-02T00:12:53.854Z,62.46
2023-03-02T00:13:53.850Z,61.94
2023-03-02T00:14:53.838Z,62.46
2023-03-02T00:15:53.864Z,62.39
2023-03-02T00:16:53.830Z,62.67
2023-03-02T00:17:53.813Z,62.46
2023-03-02T00:18:53.798Z,62.26
2023-03-02T00:19:53.793Z,62.67
2023-03-02T00:20:53.781Z,62.36
2023-03-02T00:21:53.781Z,62.57
2023-03-02T00:22:53.763Z,63.32
2023-03-02T00:23:53.756Z,62.28
2023-03-02T00:24:53.743Z,63.64
2023-03-02T00:25:53.734Z,63.54
2023-03-02T00:26:53.735Z,63.43
2023-03-02T00:27:53.723Z,61.97
2023-03-02T00:28:53.709Z,64.26
2023-03-02T00:29:53.697Z,63.22
2023-03-02T00:30:53.685Z,64.26
2023-03-02T00:31:53.848Z,63.64
2023-03-02T00:32:53.672Z,63.22
2023-03-02T00:33:53.662Z,63.85
2023-03-02T00:34:53.657Z,64.58
2023-03-02T00:35:53.732Z,63.85
2023-03-02T00:36:53.635Z,62.91
2023-03-02T00:37:53.624Z,62.49
2023-03-02T00:38:53.621Z,62.91
2023-03-02T00:39:53.612Z,64.47
2023-03-02T00:40:53.596Z,63.75
2023-03-02T00:41:53.599Z,64.37
2023-03-02T00:42:53.577Z,65.34
2023-03-02T00:43:53.567Z,63.67
2023-03-02T00:44:53.563Z,64.06
2023-03-02T00:45:53.551Z,63.67
2023-03-02T00:46:53.616Z,63.04
2023-03-02T00:47:53.535Z,63.98
2023-03-02T00:48:53.522Z,64.29
2023-03-02T00:49:53.515Z,64.50
2023-03-02T00:50:53.508Z,65.31
2023-03-02T00:51:53.613Z,64.61
2023-03-02T00:52:53.489Z,63.67
2023-03-02T00:53:53.481Z,64.29
2023-03-02T00:54:53.473Z,64.09
2023-03-02T00:55:53.466Z,64.29
2023-03-02T00:56:53.507Z,65.41
2023-03-02T00:57:53.444Z,64.92
2023-03-02T00:58:53.439Z,64.19
2023-03-02T00:59:53.438Z,64.26
2023-03-02T01:00:53.423Z,65.03
2023-03-02T01:01:53.450Z,65.34
2023-03-02T01:02:53.496Z,65.13
2023-03-02T01:03:53.412Z,65.58
2023-03-02T01:04:53.394Z,64.84
2023-03-02T01:05:53.388Z,65.47
2023-03-02T01:06:53.397Z,64.53
2023-03-02T01:07:53.385Z,65.26
2023-03-02T01:08:53.361Z,64.84
2023-03-02T01:09:53.351Z,65.44
2023-03-02T01:10:54.306Z,62.84
2023-03-02T01:11:54.347Z,64.40
2023-03-02T01:12:53.329Z,64.29
2023-03-02T01:13:53.325Z,63.78
2023-03-02T01:14:53.308Z,63.22
2023-03-02T01:15:53.331Z,62.86
2023-03-02T01:16:53.306Z,62.94
2023-03-02T01:17:53.281Z,63.98
2023-03-02T01:18:53.275Z,63.56
2023-03-02T01:19:53.264Z,64.71
2023-03-02T01:20:53.257Z,64.84
2023-03-02T01:21:53.256Z,63.88
2023-03-02T01:22:53.243Z,63.67
2023-03-02T01:23:53.225Z,62.21
2023-03-02T01:24:53.218Z,63.46
2023-03-02T01:25:53.211Z,62.84
2023-03-02T01:26:53.219Z,63.15
2023-03-02T01:27:53.205Z,62.73
2023-03-02T01:28:53.183Z,63.35
2023-03-02T01:29:53.176Z,63.15
2023-03-02T01:30:53.168Z,63.15
2023-03-02T01:31:53.303Z,62.31
2023-03-02T01:32:53.146Z,62.18
2023-03-02T01:33:53.156Z,62.91
2023-03-02T01:34:53.122Z,62.94
2023-03-02T01:35:53.184Z,63.25
2023-03-02T01:36:53.116Z,62.62
2023-03-02T01:37:53.101Z,62.84
2023-03-02T01:38:53.119Z,63.67
2023-03-02T01:39:53.086Z,63.46
2023-03-02T01:40:53.065Z,62.31
2023-03-02T01:41:53.068Z,63.56
2023-03-02T01:42:53.050Z,63.04
2023-03-02T01:43:53.037Z,63.35
2023-03-02T01:44:53.065Z,63.35
2023-03-02T01:45:53.226Z,63.04
2023-03-02T01:46:53.024Z,63.64
2023-03-02T01:47:53.005Z,62.94
2023-03-02T01:48:53.008Z,63.35
2023-03-02T01:49:52.998Z,63.46
2023-03-02T01:50:52.977Z,63.78
2023-03-02T01:51:52.999Z,63.46
2023-03-02T01:52:52.963Z,62.52
2023-03-02T01:53:54.621Z,63.32
2023-03-02T01:54:52.943Z,63.67
2023-03-02T01:55:52.942Z,63.67
2023-03-02T01:56:52.952Z,62.28
2023-03-02T01:57:52.930Z,63.15
2023-03-02T01:58:52.911Z,62.73
2023-03-02T01:59:52.902Z,63.15
2023-03-02T02:00:52.901Z,62.94
2023-03-02T02:01:52.893Z,63.67
2023-03-02T02:02:52.869Z,62.39
2023-03-02T02:03:52.886Z,62.41
2023-03-02T02:04:52.854Z,61.97
2023-03-02T02:05:52.846Z,61.97
2023-03-02T02:06:52.876Z,62.70
2023-03-02T02:07:52.826Z,62.49
2023-03-02T02:08:52.826Z,63.78
2023-03-02T02:09:52.813Z,62.00
2023-03-02T02:10:52.793Z,63.04
2023-03-02T02:11:52.786Z,62.70
2023-03-02T02:12:52.805Z,62.60
2023-03-02T02:13:52.789Z,63.56
2023-03-02T02:14:52.767Z,63.28
2023-03-02T02:15:52.749Z,62.94
2023-03-02T02:16:52.789Z,63.18
2023-03-02T02:17:52.733Z,63.15
2023-03-02T02:18:53.725Z,63.67
2023-03-02T02:19:52.722Z,64.40
2023-03-02T02:20:52.697Z,63.49
2023-03-02T02:21:52.691Z,62.34
2023-03-02T02:22:52.696Z,63.59
2023-03-02T02:23:52.678Z,63.70
2023-03-02T02:24:52.660Z,63.70
2023-03-02T02:25:52.654Z,64.53
2023-03-02T02:26:52.645Z,64.43
2023-03-02T02:27:52.649Z,63.70
2023-03-02T02:28:52.664Z,64.01
2023-03-02T02:29:52.677Z,64.43
2023-03-02T02:30:52.610Z,64.43
2023-03-02T02:31:52.715Z,64.12
2023-03-02T02:32:52.651Z,65.47
2023-03-02T02:33:52.582Z,64.14
2023-03-02T02:34:52.584Z,64.46
2023-03-02T02:35:52.610Z,64.53
2023-03-02T02:36:52.555Z,64.01
2023-03-02T02:37:52.591Z,65.30
2023-03-02T02:38:52.537Z,65.40
2023-03-02T02:39:52.555Z,64.25
2023-03-02T02:40:52.540Z,64.25
2023-03-02T02:41:52.541Z,64.12
2023-03-02T02:42:52.531Z,65.50
2023-03-02T02:43:52.497Z,65.81
2023-03-02T02:44:52.486Z,65.61
2023-03-02T02:45:52.669Z,65.09
2023-03-02T02:46:52.472Z,65.61
2023-03-02T02:47:52.480Z,65.40
2023-03-02T02:48:52.445Z,65.06
2023-03-02T02:49:52.433Z,65.40
2023-03-02T02:50:53.428Z,64.25
2023-03-02T02:51:52.421Z,66.13
2023-03-02T02:52:52.425Z,65.71
2023-03-02T02:53:52.406Z,65.30
2023-03-02T02:54:52.397Z,66.13
2023-03-02T02:55:52.391Z,65.81
2023-03-02T02:56:52.376Z,65.61
2023-03-02T02:57:52.378Z,65.40
2023-03-02T02:58:52.359Z,64.67
2023-03-02T02:59:52.346Z,64.36
2023-03-02T03:00:52.402Z,64.67
2023-03-02T03:01:52.414Z,64.95
2023-03-02T03:02:52.337Z,64.36
2023-03-02T03:03:52.380Z,65.30
2023-03-02T03:04:52.309Z,65.58
2023-03-02T03:05:52.296Z,65.19
2023-03-02T03:06:52.294Z,65.50
2023-03-02T03:07:52.317Z,65.81
2023-03-02T03:08:52.268Z,65.16
2023-03-02T03:09:52.275Z,64.46
2023-03-02T03:10:52.248Z,65.40
2023-03-02T03:11:52.251Z,65.50
2023-03-02T03:12:52.246Z,64.77
2023-03-02T03:13:52.230Z,64.67
2023-03-02T03:14:52.217Z,64.43
2023-03-02T03:15:52.204Z,64.22
2023-03-02T03:16:52.265Z,62.86
2023-03-02T03:17:52.217Z,64.56
2023-03-02T03:18:52.179Z,64.32
2023-03-02T03:19:52.165Z,63.49
2023-03-02T03:20:52.163Z,63.70
2023-03-02T03:21:52.152Z,64.12
2023-03-02T03:22:52.147Z,64.12
2023-03-02T03:23:52.129Z,64.12
2023-03-02T03:24:52.135Z,64.32
2023-03-02T03:25:52.111Z,63.70
2023-03-02T03:26:52.104Z,64.12
2023-03-02T03:27:52.119Z,64.74
2023-03-02T03:28:52.083Z,64.32
2023-03-02T03:29:52.072Z,63.70
2023-03-02T03:30:52.103Z,64.43
2023-03-02T03:31:52.132Z,64.22
2023-03-02T03:32:52.057Z,64.53
2023-03-02T03:33:52.037Z,64.64
2023-03-02T03:34:52.038Z,63.59
2023-03-02T03:35:52.075Z,64.43
2023-03-02T03:36:52.025Z,64.12
2023-03-02T03:37:52.012Z,63.59
2023-03-02T03:38:51.997Z,62.96
2023-03-02T03:39:51.985Z,63.39
2023-03-02T03:40:51.971Z,63.80
2023-03-02T03:41:51.960Z,63.70
2023-03-02T03:42:51.968Z,63.59
2023-03-02T03:43:51.980Z,64.19
2023-03-02T03:44:52.946Z,62.96
2023-03-02T03:45:52.017Z,63.80
2023-03-02T03:46:51.932Z,63.70
2023-03-02T03:47:51.916Z,63.59
2023-03-02T03:48:51.906Z,64.12
2023-03-02T03:49:51.888Z,65.16
2023-03-02T03:50:51.881Z,64.01
2023-03-02T03:51:51.873Z,64.12
2023-03-02T03:52:51.877Z,64.12
2023-03-02T03:53:51.855Z,64.43
2023-03-02T03:54:51.847Z,63.59
2023-03-02T03:55:51.837Z,63.39
2023-03-02T03:56:51.826Z,63.80
2023-03-02T03:57:51.834Z,64.43
2023-03-02T03:58:51.827Z,64.64
2023-03-02T03:59:51.801Z,64.22
2023-03-02T04:00:51.791Z,64.12
2023-03-02T04:01:51.807Z,63.90
2023-03-02T04:02:51.820Z,64.95
2023-03-02T04:03:51.758Z,64.01
2023-03-02T04:04:51.758Z,64.01
2023-03-02T04:05:51.751Z,63.59
2023-03-02T04:06:51.732Z,64.43
2023-03-02T04:07:51.725Z,64.22
2023-03-02T04:08:51.712Z,64.12
2023-03-02T04:09:51.702Z,63.90
2023-03-02T04:10:51.694Z,63.39
2023-03-02T04:11:51.684Z,64.01
2023-03-02T04:12:51.686Z,64.12
2023-03-02T04:13:51.673Z,65.58
2023-03-02T04:14:51.665Z,64.64
2023-03-02T04:15:51.691Z,64.14
2023-03-02T04:16:51.647Z,64.64
2023-03-02T04:17:51.639Z,65.37
2023-03-02T04:18:51.619Z,64.87
2023-03-02T04:19:51.604Z,64.53
2023-03-02T04:20:51.603Z,64.77
2023-03-02T04:21:51.597Z,65.40
2023-03-02T04:22:51.606Z,65.61
2023-03-02T04:23:51.575Z,65.71
2023-03-02T04:24:51.568Z,64.32
2023-03-02T04:25:51.555Z,65.40
2023-03-02T04:26:51.573Z,64.36
2023-03-02T04:27:51.557Z,65.50
2023-03-02T04:28:51.532Z,64.14
2023-03-02T04:29:51.531Z,64.46
2023-03-02T04:30:51.608Z,64.46
2023-03-02T04:31:51.596Z,64.67
2023-03-02T04:32:51.515Z,65.50
2023-03-02T04:33:51.500Z,64.01
2023-03-02T04:34:51.492Z,64.67
2023-03-02T04:35:51.504Z,64.04
2023-03-02T04:36:51.472Z,63.10
2023-03-02T04:37:51.489Z,63.73
2023-03-02T04:38:51.461Z,63.90
2023-03-02T04:39:51.460Z,62.58
2023-03-02T04:40:51.438Z,62.55
2023-03-02T04:41:51.429Z,62.55
2023-03-02T04:42:51.436Z,62.34
2023-03-02T04:43:51.414Z,63.07
2023-03-02T04:44:51.405Z,64.46
2023-03-02T04:45:51.401Z,64.04
2023-03-02T04:46:51.524Z,63.10
2023-03-02T04:47:51.391Z,64.14
2023-03-02T04:48:51.370Z,62.76
2023-03-02T04:49:51.366Z,62.24
2023-03-02T04:50:51.354Z,63.28
2023-03-02T04:51:51.349Z,61.82
2023-03-02T04:52:51.348Z,62.68
2023-03-02T04:53:51.328Z,63.07
2023-03-02T04:54:51.359Z,63.18
2023-03-02T04:55:51.320Z,62.76
2023-03-02T04:56:51.302Z,62.45
2023-03-02T04:57:51.317Z,62.76
2023-03-02T04:58:51.286Z,62.76
2023-03-02T04:59:51.287Z,62.45
2023-03-02T05:00:51.280Z,62.34
2023-03-02T05:01:51.317Z,62.02
2023-03-02T05:02:52.269Z,62.13
2023-03-02T05:03:51.254Z,62.65
2023-03-02T05:04:51.257Z,62.45
2023-03-02T05:05:51.221Z,62.55
2023-03-02T05:06:51.239Z,62.86
2023-03-02T05:07:51.223Z,61.82
2023-03-02T05:08:51.194Z,62.65
2023-03-02T05:09:51.187Z,63.59
2023-03-02T05:10:51.178Z,63.07
2023-03-02T05:11:51.167Z,62.89
2023-03-02T05:12:51.171Z,62.13
2023-03-02T05:13:51.159Z,62.24
2023-03-02T05:14:51.139Z,62.05
2023-03-02T05:15:51.190Z,62.34
2023-03-02T05:16:51.123Z,62.55
2023-03-02T05:17:51.128Z,62.76
2023-03-02T05:19:23.017Z,61.92
2023-03-02T05:19:51.101Z,62.24
2023-03-02T05:20:51.095Z,62.89
2023-03-02T05:21:51.086Z,62.79
2023-03-02T05:22:51.117Z,62.68
2023-03-02T05:23:51.068Z,62.37
2023-03-02T05:24:51.059Z,62.48
2023-03-02T05:25:51.051Z,61.95
2023-03-02T05:26:51.046Z,61.40
2023-03-02T05:27:51.051Z,62.02
2023-03-02T05:28:53.017Z,61.19
2023-03-02T05:29:52.020Z,62.05
2023-03-02T05:30:51.021Z,62.24
2023-03-02T05:31:51.169Z,62.05
2023-03-02T05:32:50.993Z,61.51
2023-03-02T05:33:51.002Z,60.46
2023-03-02T05:34:50.971Z,60.57
2023-03-02T05:35:51.022Z,60.57
2023-03-02T05:36:50.954Z,62.24
2023-03-02T05:37:50.943Z,62.05
2023-03-02T05:38:50.947Z,60.70
2023-03-02T05:39:50.935Z,59.94
2023-03-02T05:40:50.922Z,61.51
2023-03-02T05:41:51.003Z,60.57
2023-03-02T05:42:50.906Z,59.94
2023-03-02T05:43:50.903Z,60.91
2023-03-02T05:44:50.891Z,61.54
2023-03-02T05:45:50.883Z,59.94
2023-03-02T05:46:50.904Z,61.51
2023-03-02T05:47:50.863Z,60.98
2023-03-02T05:48:50.865Z,60.15
2023-03-02T05:49:50.839Z,59.83
2023-03-02T05:50:50.837Z,60.36
2023-03-02T05:51:50.830Z,60.04
2023-03-02T05:52:50.858Z,58.69
2023-03-02T05:53:50.834Z,60.67
2023-03-02T05:54:50.795Z,59.83
2023-03-02T05:55:50.817Z,59.94
2023-03-02T05:56:50.779Z,60.36
2023-03-02T05:57:50.772Z,60.57
2023-03-02T05:58:50.781Z,60.15
2023-03-02T05:59:50.753Z,60.77
2023-03-02T06:00:50.756Z,60.36
2023-03-02T06:01:50.819Z,60.67
2023-03-02T06:02:50.773Z,60.15
2023-03-02T06:03:50.722Z,59.94
2023-03-02T06:04:50.702Z,59.42
2023-03-02T06:05:50.718Z,59.94
2023-03-02T06:06:50.689Z,60.04
2023-03-02T06:07:50.678Z,60.77
2023-03-02T06:08:50.680Z,60.36
2023-03-02T06:09:50.682Z,60.15
2023-03-02T06:10:50.675Z,58.48
2023-03-02T06:11:50.650Z,60.25
2023-03-02T06:12:50.625Z,58.69
2023-03-02T06:13:50.630Z,58.27
2023-03-02T06:14:50.607Z,58.58
2023-03-02T06:15:50.599Z,57.85
2023-03-02T06:16:50.625Z,58.58
2023-03-02T06:17:50.586Z,58.16
2023-03-02T06:18:50.601Z,58.14
2023-03-02T06:19:50.575Z,58.55
2023-03-02T06:20:50.573Z,58.03
2023-03-02T06:21:50.551Z,58.14
2023-03-02T06:22:50.541Z,58.27
2023-03-02T06:23:50.547Z,59.28
2023-03-02T06:24:50.519Z,58.14
2023-03-02T06:25:50.518Z,60.22
2023-03-02T06:26:50.502Z,58.97
2023-03-02T06:27:50.496Z,58.79
2023-03-02T06:28:53.146Z,58.34
2023-03-02T06:29:51.507Z,57.62
2023-03-02T06:30:50.476Z,58.87
2023-03-02T06:31:50.599Z,58.34
2023-03-02T06:32:50.510Z,58.34
2023-03-02T06:33:51.467Z,58.11
2023-03-02T06:34:50.437Z,59.91
2023-03-02T06:35:50.601Z,58.03
2023-03-02T06:36:50.417Z,58.24
2023-03-02T06:37:50.409Z,58.55
2023-03-02T06:38:50.440Z,57.62
2023-03-02T06:39:50.389Z,58.01
2023-03-02T06:40:50.387Z,58.03
2023-03-02T06:41:50.375Z,58.32
2023-03-02T06:42:50.362Z,57.59
2023-03-02T06:43:50.387Z,56.13
2023-03-02T06:44:50.342Z,58.53
2023-03-02T06:45:50.349Z,57.69
2023-03-02T06:46:50.328Z,58.73
2023-03-02T06:47:50.319Z,57.38
2023-03-02T06:48:50.319Z,57.90
2023-03-02T06:49:50.302Z,58.18
2023-03-02T06:50:50.300Z,57.56
2023-03-02T06:51:50.303Z,57.67
2023-03-02T06:52:50.281Z,58.11
2023-03-02T06:53:50.279Z,57.98
2023-03-02T06:54:50.255Z,57.77
2023-03-02T06:55:50.255Z,58.29
2023-03-02T06:56:50.241Z,57.56
2023-03-02T06:57:50.247Z,58.71
2023-03-02T06:58:50.245Z,58.18
2023-03-02T06:59:50.228Z,58.79
2023-03-02T07:00:50.273Z,58.61
2023-03-02T07:01:50.199Z,58.18
2023-03-02T07:02:50.189Z,57.67
2023-03-02T07:03:50.312Z,57.46
2023-03-02T07:04:50.176Z,57.01
2023-03-02T07:05:50.170Z,57.75
2023-03-02T07:06:50.153Z,59.28
2023-03-02T07:07:50.145Z,58.34
2023-03-02T07:08:50.144Z,57.82
2023-03-02T07:09:50.124Z,55.63
2023-03-02T07:10:50.124Z,56.13
2023-03-02T07:11:50.107Z,56.47
2023-03-02T07:12:50.093Z,55.63
2023-03-02T07:13:50.104Z,55.43
2023-03-02T07:14:50.075Z,56.99
2023-03-02T07:15:50.102Z,56.91
2023-03-02T07:16:50.121Z,55.84
2023-03-02T07:17:50.048Z,58.14
2023-03-02T07:18:50.061Z,56.99
2023-03-02T07:19:50.050Z,57.30
2023-03-02T07:20:50.029Z,55.94
2023-03-02T07:21:50.013Z,55.94
2023-03-02T07:22:50.009Z,58.55
2023-03-02T07:23:50.016Z,56.02
2023-03-02T07:24:50.001Z,56.02
2023-03-02T07:25:49.993Z,55.82
2023-03-02T07:26:49.980Z,58.45
2023-03-02T07:27:49.979Z,57.69
2023-03-02T07:28:50.010Z,57.35
2023-03-02T07:29:49.950Z,56.13
2023-03-02T07:30:49.998Z,55.04
2023-03-02T07:31:49.941Z,55.53
2023-03-02T07:32:49.925Z,55.56
2023-03-02T07:33:49.940Z,55.98
2023-03-02T07:34:49.912Z,55.90
2023-03-02T07:35:49.926Z,54.75
2023-03-02T07:36:49.892Z,55.48
2023-03-02T07:37:49.912Z,56.13
2023-03-02T07:38:49.876Z,55.19
2023-03-02T07:39:49.873Z,57.56
2023-03-02T07:40:49.853Z,57.28
2023-03-02T07:41:49.848Z,56.13
2023-03-02T07:42:49.833Z,57.67
2023-03-02T07:43:49.837Z,57.67
2023-03-02T07:44:49.814Z,56.00
2023-03-02T07:45:49.810Z,57.98
2023-03-02T07:46:49.871Z,57.46
2023-03-02T07:47:49.806Z,57.35
2023-03-02T07:48:49.799Z,58.18
2023-03-02T07:49:49.787Z,56.73
2023-03-02T07:50:49.774Z,56.93
2023-03-02T07:51:49.753Z,57.43
2023-03-02T07:52:49.752Z,57.04
2023-03-02T07:53:49.755Z,57.85
2023-03-02T07:54:49.735Z,55.69
2023-03-02T07:55:49.731Z,55.98
2023-03-02T07:56:49.711Z,55.45
2023-03-02T07:57:49.726Z,56.08
2023-03-02T07:58:49.706Z,56.39
2023-03-02T07:59:49.687Z,55.45
2023-03-02T08:00:49.685Z,55.45
2023-03-02T08:01:49.733Z,55.24
2023-03-02T08:02:49.726Z,55.24
2023-03-02T08:03:49.678Z,55.14
2023-03-02T08:04:49.645Z,55.58
2023-03-02T08:05:49.696Z,56.18
2023-03-02T08:06:49.641Z,55.24
2023-03-02T08:07:49.654Z,55.87
2023-03-02T08:08:49.624Z,56.16
2023-03-02T08:09:49.607Z,56.68
2023-03-02T08:10:49.612Z,55.53
2023-03-02T08:11:49.581Z,55.22
2023-03-02T08:12:49.572Z,54.80
2023-03-02T08:13:49.571Z,55.43
2023-03-02T08:14:49.563Z,55.11
2023-03-02T08:15:49.574Z,55.22
2023-03-02T08:16:49.537Z,54.88
2023-03-02T08:17:49.534Z,54.88
2023-03-02T08:18:49.540Z,54.36
2023-03-02T08:19:49.514Z,55.40
2023-03-02T08:20:49.496Z,54.75
2023-03-02T08:21:49.505Z,55.35
2023-03-02T08:22:49.492Z,52.31
2023-03-02T08:23:49.541Z,52.29
2023-03-02T08:24:49.469Z,52.09
2023-03-02T08:25:49.463Z,50.63
2023-03-02T08:26:49.449Z,50.30
2023-03-02T08:27:49.446Z,49.11
2023-03-02T08:28:49.471Z,50.72
2023-03-02T08:29:49.417Z,49.74
2023-03-02T08:30:50.420Z,48.92
2023-03-02T08:31:49.460Z,48.69
2023-03-02T08:32:49.460Z,48.07
2023-03-02T08:33:49.413Z,46.85
2023-03-02T08:34:49.380Z,48.94
2023-03-02T08:35:51.339Z,49.33
2023-03-02T08:36:49.362Z,47.60
2023-03-02T08:37:49.357Z,47.52
2023-03-02T08:38:49.370Z,48.80
2023-03-02T08:39:49.339Z,51.60
2023-03-02T08:40:49.331Z,51.91
2023-03-02T08:41:49.315Z,51.93
2023-03-02T08:42:49.307Z,51.44
2023-03-02T08:43:49.307Z,51.57
2023-03-02T08:44:50.297Z,51.46
2023-03-02T08:45:49.324Z,51.75
2023-03-02T08:46:49.272Z,52.04
2023-03-02T08:47:49.261Z,50.35
2023-03-02T08:48:49.276Z,50.33
2023-03-02T08:49:49.256Z,51.16
2023-03-02T08:50:49.238Z,50.02
2023-03-02T08:51:49.244Z,48.86
2023-03-02T08:52:49.221Z,49.48
2023-03-02T08:53:49.230Z,48.60
2023-03-02T08:54:49.230Z,52.01
2023-03-02T08:55:49.197Z,51.89
2023-03-02T08:56:49.182Z,50.00
2023-03-02T08:57:49.190Z,50.99
2023-03-02T08:58:49.197Z,48.56
2023-03-02T08:59:49.161Z,47.81
2023-03-02T09:00:49.215Z,47.30
2023-03-02T09:01:49.237Z,46.84
2023-03-02T09:02:49.128Z,47.17
2023-03-02T09:03:49.147Z,45.92
2023-03-02T09:04:49.188Z,49.27
2023-03-02T09:05:49.100Z,51.78
2023-03-02T09:06:49.090Z,48.82
2023-03-02T09:07:49.085Z,52.25
2023-03-02T09:08:49.114Z,52.06
2023-03-02T09:09:49.130Z,51.23
2023-03-02T09:10:49.059Z,50.71
2023-03-02T09:11:49.056Z,51.34
2023-03-02T09:12:49.050Z,52.17
2023-03-02T09:13:49.029Z,52.58
2023-03-02T09:14:49.039Z,53.51
2023-03-02T09:15:49.018Z,51.62
2023-03-02T09:16:49.077Z,50.40
2023-03-02T09:17:48.993Z,50.17
2023-03-02T09:18:48.982Z,49.78
2023-03-02T09:19:49.006Z,50.20
2023-03-02T09:20:48.971Z,50.71
2023-03-02T09:21:48.951Z,49.65
2023-03-02T09:22:49.956Z,51.83
2023-03-02T09:23:48.947Z,50.15
2023-03-02T09:24:48.948Z,51.29
2023-03-02T09:25:48.953Z,50.31
2023-03-02T09:26:48.920Z,48.55
2023-03-02T09:27:48.943Z,49.87
2023-03-02T09:28:48.904Z,48.83
2023-03-02T09:29:48.907Z,48.83
2023-03-02T09:30:48.886Z,48.55
2023-03-02T09:31:48.973Z,48.55
2023-03-02T09:32:48.978Z,49.04
2023-03-02T09:33:48.914Z,49.33
2023-03-02T09:34:48.857Z,48.43
2023-03-02T09:35:48.850Z,48.22
2023-03-02T09:36:48.832Z,47.78
2023-03-02T09:37:48.854Z,48.66
2023-03-02T09:38:48.819Z,45.83
2023-03-02T09:39:48.847Z,48.65
2023-03-02T09:40:48.793Z,47.80
2023-03-02T09:41:48.790Z,48.44
2023-03-02T09:42:48.774Z,48.05
2023-03-02T09:43:48.769Z,47.06
2023-03-02T09:44:48.765Z,48.32
2023-03-02T09:45:48.781Z,50.05
2023-03-02T09:46:48.739Z,47.91
2023-03-02T09:47:48.720Z,48.71
2023-03-02T09:48:49.718Z,49.62
2023-03-02T09:49:48.718Z,49.80
2023-03-02T09:50:48.704Z,47.09
2023-03-02T09:51:48.718Z,45.98
2023-03-02T09:52:48.685Z,45.86
2023-03-02T09:53:48.676Z,47.09
2023-03-02T09:54:48.668Z,47.17
2023-03-02T09:55:49.656Z,47.49
2023-03-02T09:56:48.663Z,46.77
2023-03-02T09:57:48.662Z,47.20
2023-03-02T09:58:48.627Z,47.09
2023-03-02T09:59:48.652Z,45.75
2023-03-02T10:00:48.618Z,48.56
2023-03-02T10:01:48.600Z,47.97
2023-03-02T10:02:48.689Z,50.47
2023-03-02T10:03:48.755Z,49.02
2023-03-02T10:04:48.631Z,47.99
2023-03-02T10:05:48.598Z,50.89
2023-03-02T10:06:48.551Z,50.47
2023-03-02T10:07:48.554Z,49.54
2023-03-02T10:08:48.539Z,50.86
2023-03-02T10:09:48.545Z,50.65
2023-03-02T10:10:48.528Z,51.58
2023-03-02T10:11:48.515Z,51.97
2023-03-02T10:12:48.500Z,49.57
2023-03-02T10:13:48.490Z,48.85
2023-03-02T10:14:48.497Z,50.20
2023-03-02T10:15:48.583Z,50.50
2023-03-02T10:16:48.497Z,48.15
2023-03-02T10:17:48.498Z,50.32
2023-03-02T10:18:48.522Z,50.11
2023-03-02T10:19:48.453Z,49.78
2023-03-02T10:20:48.430Z,49.91
2023-03-02T10:21:48.420Z,50.42
2023-03-02T10:22:48.419Z,49.68
2023-03-02T10:23:48.406Z,49.14
2023-03-02T10:24:48.407Z,49.34
2023-03-02T10:25:48.392Z,48.08
2023-03-02T10:26:48.415Z,47.05
2023-03-02T10:27:48.445Z,47.80
2023-03-02T10:28:48.375Z,46.91
2023-03-02T10:29:48.361Z,48.54
2023-03-02T10:30:48.407Z,48.75
2023-03-02T10:31:48.340Z,48.85
2023-03-02T10:32:48.333Z,46.66
2023-03-02T10:33:48.320Z,47.69
2023-03-02T10:34:48.358Z,46.78
2023-03-02T10:35:48.393Z,48.10
2023-03-02T10:36:48.314Z,47.80
2023-03-02T10:37:48.347Z,47.90
2023-03-02T10:38:48.283Z,48.23
2023-03-02T10:39:48.319Z,48.72
2023-03-02T10:40:48.255Z,47.59
2023-03-02T10:41:48.293Z,48.41
2023-03-02T10:42:48.246Z,46.45
2023-03-02T10:43:48.247Z,46.25
2023-03-02T10:44:48.444Z,46.39
2023-03-02T10:45:48.286Z,48.25
2023-03-02T10:46:48.288Z,49.60
2023-03-02T10:47:48.283Z,49.99
2023-03-02T10:48:49.659Z,49.96
2023-03-02T10:49:49.189Z,49.14
2023-03-02T10:50:48.170Z,48.54
2023-03-02T10:51:48.171Z,46.89
2023-03-02T10:52:59.227Z,48.54
2023-03-02T10:53:50.146Z,50.48
2023-03-02T10:54:48.152Z,49.32
2023-03-02T10:55:48.129Z,49.73
2023-03-02T10:56:48.131Z,49.71
2023-03-02T10:57:48.110Z,47.96
2023-03-02T10:58:48.100Z,48.24
2023-03-02T10:59:48.107Z,48.16
2023-03-02T11:00:48.086Z,47.01
2023-03-02T11:01:48.155Z,46.41
2023-03-02T11:02:48.069Z,48.47
2023-03-02T11:03:48.063Z,46.72
2023-03-02T11:04:48.119Z,47.83
2023-03-02T11:05:48.042Z,45.77
2023-03-02T11:06:48.034Z,46.72
2023-03-02T11:07:48.020Z,47.96
2023-03-02T11:08:48.017Z,45.48
2023-03-02T11:09:48.020Z,43.33
2023-03-02T11:10:47.996Z,44.18
2023-03-02T11:11:48.045Z,45.63
2023-03-02T11:12:47.982Z,43.25
2023-03-02T11:13:47.970Z,44.29
2023-03-02T11:14:47.961Z,46.33
2023-03-02T11:15:48.026Z,45.71
2023-03-02T11:16:47.944Z,44.89
2023-03-02T11:17:47.938Z,46.23
2023-03-02T11:18:47.925Z,48.45
2023-03-02T11:19:47.939Z,42.69
2023-03-02T11:20:47.904Z,45.59
2023-03-02T11:21:47.898Z,47.11
2023-03-02T11:22:47.883Z,43.91
2023-03-02T11:23:47.875Z,44.04
2023-03-02T11:24:47.872Z,43.19
2023-03-02T11:25:47.921Z,45.85
2023-03-02T11:26:47.850Z,43.99
2023-03-02T11:27:47.840Z,44.82
2023-03-02T11:28:47.875Z,46.16
2023-03-02T11:29:47.827Z,47.50
2023-03-02T11:30:47.822Z,46.78
2023-03-02T11:31:47.864Z,47.30
2023-03-02T11:32:47.872Z,46.98
2023-03-02T11:33:47.890Z,45.03
2023-03-02T11:34:47.779Z,46.88
2023-03-02T11:35:47.838Z,43.60
2023-03-02T11:36:47.755Z,43.09
2023-03-02T11:37:47.745Z,45.46
2023-03-02T11:38:47.746Z,45.34
2023-03-02T11:39:54.968Z,43.81
2023-03-02T11:40:49.735Z,46.06
2023-03-02T11:41:47.727Z,47.50
2023-03-02T11:42:47.708Z,45.56
2023-03-02T11:43:47.691Z,45.54
2023-03-02T11:44:47.690Z,43.07
2023-03-02T11:45:47.688Z,45.95
2023-03-02T11:46:47.699Z,43.38
2023-03-02T11:47:54.187Z,44.90
2023-03-02T11:48:49.657Z,45.62
2023-03-02T11:49:47.661Z,46.22
2023-03-02T11:50:47.637Z,45.50
2023-03-02T11:51:57.842Z,44.18
2023-03-02T11:52:49.608Z,46.55
2023-03-02T11:53:47.718Z,47.17
2023-03-02T11:54:47.607Z,47.77
2023-03-02T11:55:47.600Z,45.09
2023-03-02T11:56:47.573Z,46.63
2023-03-02T11:57:47.562Z,45.79
2023-03-02T11:58:47.558Z,46.12
2023-03-02T11:59:47.545Z,47.35
2023-03-02T12:00:47.556Z,47.87
2023-03-02T12:01:47.559Z,46.24
2023-03-02T12:02:47.523Z,46.63
2023-03-02T12:03:47.619Z,47.35
2023-03-02T12:04:47.512Z,46.84
2023-03-02T12:05:47.591Z,46.66
2023-03-02T12:06:47.502Z,46.86
2023-03-02T12:07:47.472Z,46.97
2023-03-02T12:08:47.561Z,46.14
2023-03-02T12:09:47.455Z,48.38
2023-03-02T12:10:47.460Z,48.59
2023-03-02T12:11:47.440Z,46.63
2023-03-02T12:12:47.434Z,48.67
2023-03-02T12:13:47.424Z,46.00
2023-03-02T12:14:47.493Z,47.02
2023-03-02T12:15:47.416Z,45.48
2023-03-02T12:16:47.428Z,46.73
2023-03-02T12:17:47.397Z,47.87
2023-03-02T12:18:47.377Z,46.73
2023-03-02T12:19:47.369Z,47.45
2023-03-02T12:20:47.369Z,47.17
2023-03-02T12:21:47.350Z,49.62
2023-03-02T12:22:47.335Z,48.07
2023-03-02T12:23:47.330Z,48.36
2023-03-02T12:24:47.316Z,46.92
2023-03-02T12:25:47.321Z,46.30
2023-03-02T12:26:47.303Z,46.53
2023-03-02T12:27:47.289Z,47.95
2023-03-02T12:28:47.311Z,45.37
2023-03-02T12:29:47.270Z,46.82
2023-03-02T12:30:47.272Z,47.44
2023-03-02T12:31:47.307Z,45.79
2023-03-02T12:32:47.245Z,47.25
2023-03-02T12:33:47.229Z,47.97
2023-03-02T12:34:47.223Z,48.07
2023-03-02T12:35:47.267Z,46.94
2023-03-02T12:36:47.257Z,45.62
2023-03-02T12:37:47.214Z,48.18
2023-03-02T12:38:47.211Z,46.84
2023-03-02T12:39:47.181Z,47.33
2023-03-02T12:40:47.178Z,46.59
2023-03-02T12:41:47.219Z,47.00
2023-03-02T12:42:47.143Z,45.25
2023-03-02T12:43:47.136Z,45.04
2023-03-02T12:44:47.123Z,44.96
2023-03-02T12:45:47.190Z,47.85
2023-03-02T12:46:47.178Z,47.00
2023-03-02T12:47:47.452Z,45.37
2023-03-02T12:48:47.588Z,45.36
2023-03-02T12:49:47.094Z,45.36
2023-03-02T12:50:47.078Z,44.86
2023-03-02T12:51:47.179Z,45.79
2023-03-02T12:52:47.058Z,45.87